Time;durP1;ratioP1;P1;durP2;ratioP2;P2;SDS_P1;SDS_P2;PMS_P1;PMS_P2;Temp;Humidity;BMP_temperature;BMP_pressure;BME280_temperature;BME280_humidity;BME280_pressure;Samples;Min_cycle;Max_cycle;Signal;HPM_P1;HPM_P2
2022/01/06 15:10:44;;;;;;;;;;;2.70;99.90;;;;;;5116200;27;19919;-70
2022/01/06 15:13:11;;;;;;;;;;;2.10;99.90;;;;;;5114630;28;20253;-70
2022/01/06 15:15:38;;;;;;;;;;;2.00;99.90;;;;;;5115814;28;19912;-70
2022/01/06 15:18:06;;;;;;;;;;;1.90;99.90;;;;;;5115974;28;19915;-70
2022/01/06 15:20:34;;;;;;;19.73;6.60;;;1.70;99.90;;;;;;5114464;28;20405;-70
2022/01/06 15:23:02;;;;;;;15.75;4.55;;;1.70;99.90;;;;;;5099445;28;20309;-70
2022/01/06 15:25:31;;;;;;;15.18;6.28;;;1.70;99.90;;;;;;5094728;28;20024;-69
2022/01/06 15:27:59;;;;;;;11.73;4.57;;;1.60;99.90;;;;;;5095169;28;20350;-70
2022/01/06 15:30:26;;;;;;;25.50;5.28;;;1.50;99.90;;;;;;5093770;28;20020;-69
2022/01/06 15:32:54;;;;;;;18.60;5.40;;;1.40;99.90;;;;;;5094690;28;20069;-69
2022/01/06 15:35:21;;;;;;;19.52;5.97;;;1.30;99.90;;;;;;5094835;28;20024;-72
2022/01/06 15:37:49;;;;;;;17.05;5.63;;;1.20;99.90;;;;;;5093608;28;20319;-72
2022/01/06 15:40:19;;;;;;;29.25;7.30;;;1.10;99.90;;;;;;5094161;28;20021;-72
2022/01/06 15:42:49;;;;;;;22.77;7.60;;;1.00;99.90;;;;;;5093515;28;20473;-70
2022/01/06 15:45:17;;;;;;;24.73;7.07;;;0.90;99.90;;;;;;5093743;28;20030;-69
2022/01/06 15:47:45;;;;;;;22.77;6.25;;;0.80;99.90;;;;;;5093340;28;20085;-68
2022/01/06 15:50:12;;;;;;;16.02;5.55;;;0.70;99.90;;;;;;5094395;28;20031;-68
2022/01/06 15:52:40;;;;;;;18.17;4.97;;;0.60;99.90;;;;;;5094296;28;20046;-68
2022/01/06 15:55:08;;;;;;;21.58;6.43;;;0.50;99.90;;;;;;5093091;28;20366;-68
2022/01/06 15:57:36;;;;;;;18.33;7.05;;;0.40;99.90;;;;;;5094230;28;20018;-68
2022/01/06 16:00:33;;;;;;;17.67;5.55;;;0.30;99.90;;;;;;5092971;28;20315;-70
2022/01/06 16:05:48;;;;;;;22.52;5.80;;;0.10;99.90;;;;;;5094007;28;20023;-68
2022/01/06 16:08:17;;;;;;;12.48;5.78;;;0.00;99.90;;;;;;5093622;28;20073;-69
2022/01/06 16:10:50;;;;;;;19.70;5.50;;;-0.10;99.90;;;;;;5114701;28;20030;-70
2022/01/06 16:13:18;;;;;;;16.92;6.10;;;-0.20;99.90;;;;;;5096264;28;20073;-68
2022/01/06 16:15:45;;;;;;;25.77;7.13;;;-0.20;99.90;;;;;;5096105;28;20020;-68
2022/01/06 16:18:13;;;;;;;22.95;7.88;;;-0.30;99.90;;;;;;5114131;28;20020;-69
2022/01/06 16:20:41;;;;;;;17.98;6.65;;;-0.30;99.90;;;;;;5107028;28;20031;-68
2022/01/06 16:23:08;;;;;;;30.55;12.07;;;-0.40;99.90;;;;;;5099700;28;20028;-68
2022/01/06 16:25:36;;;;;;;32.45;11.65;;;-0.50;99.90;;;;;;5099372;28;20442;-73
2022/01/06 16:28:22;;;;;;;26.58;9.45;;;-0.50;99.90;;;;;;5099654;28;20319;-74
2022/01/06 16:31:12;;;;;;;37.15;11.05;;;-0.50;99.90;;;;;;5099920;28;20074;-70
2022/01/06 16:33:44;;;;;;;29.42;10.35;;;-0.60;99.90;;;;;;5100009;28;20050;-74
2022/01/06 16:36:11;;;;;;;32.20;11.40;;;-0.60;99.90;;;;;;5100054;28;20024;-74
2022/01/06 16:38:39;;;;;;;24.13;8.80;;;-0.60;99.90;;;;;;5100677;28;20028;-70
2022/01/06 16:41:06;;;;;;;26.17;8.30;;;-0.70;99.90;;;;;;5082743;28;20030;-70
2022/01/06 16:43:36;;;;;;;34.70;8.98;;;-0.70;99.90;;;;;;5100473;28;20312;-70
2022/01/06 16:46:03;;;;;;;25.90;8.32;;;-0.80;99.90;;;;;;5099987;28;20027;-70
2022/01/06 16:48:30;;;;;;;26.60;7.43;;;-0.80;99.90;;;;;;5099901;28;20028;-70
2022/01/06 16:51:00;;;;;;;28.25;7.43;;;-0.80;99.90;;;;;;5081922;28;20020;-68
2022/01/06 16:53:27;;;;;;;18.73;6.95;;;-0.90;99.90;;;;;;5099822;28;20024;-68
2022/01/06 16:55:55;;;;;;;15.55;6.38;;;-0.90;99.90;;;;;;5081877;28;20024;-68
2022/01/06 16:58:22;;;;;;;18.13;6.75;;;-0.90;99.90;;;;;;5081752;28;20031;-68
2022/01/06 17:00:51;;;;;;;22.73;7.15;;;-0.90;99.90;;;;;;5100303;28;20399;-70
2022/01/06 17:03:18;;;;;;;16.45;7.13;;;-1.00;99.90;;;;;;5100658;28;20322;-70
2022/01/06 17:05:48;;;;;;;21.77;7.88;;;-1.00;99.90;;;;;;5099312;28;20016;-70
2022/01/06 17:08:16;;;;;;;21.58;6.68;;;-1.10;99.90;;;;;;5098339;28;20020;-70
2022/01/06 17:10:43;;;;;;;23.05;7.30;;;-1.10;99.90;;;;;;5078661;28;20111;-70
2022/01/06 17:13:11;;;;;;;18.45;7.38;;;-1.20;99.90;;;;;;5078544;28;20017;-70
2022/01/06 17:15:39;;;;;;;23.45;6.70;;;-1.20;99.90;;;;;;5078906;28;20078;-70
2022/01/06 17:18:07;;;;;;;26.15;7.97;;;-1.20;99.90;;;;;;5079673;28;20021;-70
2022/01/06 17:20:34;;;;;;;47.25;16.38;;;-1.20;99.90;;;;;;5079090;28;20024;-70
2022/01/06 17:23:02;;;;;;;29.75;11.02;;;-1.20;99.90;;;;;;5079259;28;20480;-70
2022/01/06 17:25:29;;;;;;;27.75;8.90;;;-1.30;99.90;;;;;;5078986;28;20028;-70
2022/01/06 17:28:00;;;;;;;36.97;15.65;;;-1.30;99.90;;;;;;5079002;28;20408;-70
2022/01/06 17:30:29;;;;;;;37.88;12.52;;;-1.30;99.90;;;;;;5079294;28;20039;-68
2022/01/06 17:32:57;;;;;;;34.30;10.18;;;-1.30;99.90;;;;;;5078473;28;20020;-68
2022/01/06 17:35:24;;;;;;;28.92;10.77;;;-1.30;99.90;;;;;;5079291;28;20041;-68
2022/01/06 17:37:52;;;;;;;26.63;8.45;;;-1.40;99.90;;;;;;5078861;28;20024;-68
2022/01/06 17:40:20;;;;;;;30.85;8.15;;;-1.40;99.90;;;;;;5078669;28;20021;-68
2022/01/06 17:42:47;;;;;;;25.17;8.07;;;-1.40;99.90;;;;;;5078689;28;20021;-68
2022/01/06 17:45:15;;;;;;;22.67;7.10;;;-1.40;99.90;;;;;;5078519;28;20034;-68
2022/01/06 17:47:44;;;;;;;28.85;7.80;;;-1.40;99.90;;;;;;5078056;28;20059;-70
2022/01/06 17:50:13;;;;;;;25.58;7.72;;;-1.40;99.90;;;;;;5077484;28;20478;-70
2022/01/06 17:52:40;;;;;;;22.70;7.65;;;-1.40;99.90;;;;;;5076409;28;20111;-70
2022/01/06 17:55:08;;;;;;;23.98;8.02;;;-1.50;99.90;;;;;;5077507;28;20021;-70
2022/01/06 17:57:36;;;;;;;28.85;11.57;;;-1.50;99.90;;;;;;5078149;28;20024;-70
2022/01/06 18:00:05;;;;;;;33.92;11.98;;;-1.50;99.90;;;;;;5076590;28;20024;-70
2022/01/06 18:02:36;;;;;;;27.23;9.82;;;-1.50;99.90;;;;;;5078863;28;20052;-70
2022/01/06 18:05:08;;;;;;;25.00;8.77;;;-1.50;99.90;;;;;;5078818;28;20040;-70
2022/01/06 18:08:01;;;;;;;41.35;10.75;;;-1.50;99.90;;;;;;5078567;28;20029;-70
2022/01/06 18:13:15;;;;;;;26.08;8.75;;;-1.50;99.90;;;;;;5098466;28;20023;-70
2022/01/06 18:15:42;;;;;;;27.48;9.18;;;-1.60;99.90;;;;;;5080321;28;20032;-70
2022/01/06 18:18:11;;;;;;;29.67;9.88;;;-1.60;99.90;;;;;;5098952;28;20021;-70
2022/01/06 18:20:39;;;;;;;25.33;9.50;;;-1.60;99.90;;;;;;5098157;28;20024;-70
2022/01/06 18:23:07;;;;;;;31.77;13.38;;;-1.60;99.90;;;;;;5098106;28;20020;-70
2022/01/06 18:25:35;;;;;;;38.03;13.82;;;-1.60;99.90;;;;;;5098627;28;20020;-70
